sensor_id;sensor_type;location;lat;lon;timestamp;temperature;humidity
67862;DHT22;54665;51.462;6.698;2024-02-26T00:00:01;7.24;80.18
67862;DHT22;54665;51.462;6.698;2024-02-26T00:02:01;7.05;80.30
67862;DHT22;54665;51.462;6.698;2024-02-26T00:04:02;7.13;80.30
67862;DHT22;54665;51.462;6.698;2024-02-26T00:06:02;7.08;81.58
67862;DHT22;54665;51.462;6.698;2024-02-26T00:08:03;7.02;81.49
67862;DHT22;54665;51.462;6.698;2024-02-26T00:10:03;6.98;81.10
67862;DHT22;54665;51.462;6.698;2024-02-26T00:12:04;7.02;82.51
67862;DHT22;54665;51.462;6.698;2024-02-26T00:14:04;6.92;82.95
67862;DHT22;54665;51.462;6.698;2024-02-26T00:16:05;6.88;82.77
67862;DHT22;54665;51.462;6.698;2024-02-26T00:18:06;6.89;82.49
67862;DHT22;54665;51.462;6.698;2024-02-26T00:20:06;6.91;83.08
67862;DHT22;54665;51.462;6.698;2024-02-26T00:22:07;6.79;82.80
67862;DHT22;54665;51.462;6.698;2024-02-26T00:24:07;6.84;83.13
67862;DHT22;54665;51.462;6.698;2024-02-26T00:26:08;6.78;83.63
67862;DHT22;54665;51.462;6.698;2024-02-26T00:28:08;6.74;83.09
67862;DHT22;54665;51.462;6.698;2024-02-26T00:30:09;6.75;83.07
67862;DHT22;54665;51.462;6.698;2024-02-26T00:32:09;6.72;83.19
67862;DHT22;54665;51.462;6.698;2024-02-26T00:34:10;6.65;83.63
67862;DHT22;54665;51.462;6.698;2024-02-26T00:36:10;6.75;82.51
67862;DHT22;54665;51.462;6.698;2024-02-26T00:38:10;6.74;83.20
67862;DHT22;54665;51.462;6.698;2024-02-26T00:40:11;6.84;83.19
67862;DHT22;54665;51.462;6.698;2024-02-26T00:42:11;6.75;83.07
67862;DHT22;54665;51.462;6.698;2024-02-26T00:44:12;6.85;83.11
67862;DHT22;54665;51.462;6.698;2024-02-26T00:46:13;6.81;82.42
67862;DHT22;54665;51.462;6.698;2024-02-26T00:48:13;6.82;82.02
67862;DHT22;54665;51.462;6.698;2024-02-26T00:50:13;6.81;82.13
67862;DHT22;54665;51.462;6.698;2024-02-26T00:52:13;6.67;82.29
67862;DHT22;54665;51.462;6.698;2024-02-26T00:54:14;6.81;82.56
67862;DHT22;54665;51.462;6.698;2024-02-26T00:56:14;6.99;82.05
67862;DHT22;54665;51.462;6.698;2024-02-26T00:58:15;6.95;81.69
67862;DHT22;54665;51.462;6.698;2024-02-26T01:00:15;6.98;81.80
67862;DHT22;54665;51.462;6.698;2024-02-26T01:02:16;6.92;82.76
67862;DHT22;54665;51.462;6.698;2024-02-26T01:04:16;6.93;83.45
67862;DHT22;54665;51.462;6.698;2024-02-26T01:06:17;6.85;82.72
67862;DHT22;54665;51.462;6.698;2024-02-26T01:08:17;6.87;81.91
67862;DHT22;54665;51.462;6.698;2024-02-26T01:10:17;6.95;82.85
67862;DHT22;54665;51.462;6.698;2024-02-26T01:12:18;7.06;81.41
67862;DHT22;54665;51.462;6.698;2024-02-26T01:14:18;7.12;80.21
67862;DHT22;54665;51.462;6.698;2024-02-26T01:16:19;7.22;81.31
67862;DHT22;54665;51.462;6.698;2024-02-26T01:18:19;7.18;80.26
67862;DHT22;54665;51.462;6.698;2024-02-26T01:20:20;7.06;80.73
67862;DHT22;54665;51.462;6.698;2024-02-26T01:22:20;7.20;80.94
67862;DHT22;54665;51.462;6.698;2024-02-26T01:24:21;7.16;80.81
67862;DHT22;54665;51.462;6.698;2024-02-26T01:26:21;7.19;81.13
67862;DHT22;54665;51.462;6.698;2024-02-26T01:28:21;7.22;80.66
67862;DHT22;54665;51.462;6.698;2024-02-26T01:30:22;7.20;80.03
67862;DHT22;54665;51.462;6.698;2024-02-26T01:32:22;7.15;79.34
67862;DHT22;54665;51.462;6.698;2024-02-26T01:34:22;7.19;79.89
67862;DHT22;54665;51.462;6.698;2024-02-26T01:36:23;7.22;79.70
67862;DHT22;54665;51.462;6.698;2024-02-26T01:38:23;7.26;79.40
67862;DHT22;54665;51.462;6.698;2024-02-26T01:40:26;7.22;79.11
67862;DHT22;54665;51.462;6.698;2024-02-26T01:42:27;7.37;78.89
67862;DHT22;54665;51.462;6.698;2024-02-26T01:44:27;7.37;79.61
67862;DHT22;54665;51.462;6.698;2024-02-26T01:46:29;7.27;80.14
67862;DHT22;54665;51.462;6.698;2024-02-26T01:48:30;7.18;79.63
67862;DHT22;54665;51.462;6.698;2024-02-26T01:50:30;7.22;79.31
67862;DHT22;54665;51.462;6.698;2024-02-26T01:52:31;7.15;78.80
67862;DHT22;54665;51.462;6.698;2024-02-26T01:54:34;7.09;78.56
67862;DHT22;54665;51.462;6.698;2024-02-26T01:56:36;7.09;78.33
67862;DHT22;54665;51.462;6.698;2024-02-26T01:58:37;7.08;78.89
67862;DHT22;54665;51.462;6.698;2024-02-26T02:00:38;7.12;79.11
67862;DHT22;54665;51.462;6.698;2024-02-26T02:02:39;7.12;79.01
67862;DHT22;54665;51.462;6.698;2024-02-26T02:04:39;7.33;78.76
67862;DHT22;54665;51.462;6.698;2024-02-26T02:06:41;7.16;79.26
67862;DHT22;54665;51.462;6.698;2024-02-26T02:08:42;7.12;79.90
67862;DHT22;54665;51.462;6.698;2024-02-26T02:10:43;7.15;80.03
67862;DHT22;54665;51.462;6.698;2024-02-26T02:12:43;7.18;80.12
67862;DHT22;54665;51.462;6.698;2024-02-26T02:14:43;7.15;80.26
67862;DHT22;54665;51.462;6.698;2024-02-26T02:16:44;7.08;81.21
67862;DHT22;54665;51.462;6.698;2024-02-26T02:18:44;6.93;81.21
67862;DHT22;54665;51.462;6.698;2024-02-26T02:20:44;7.05;80.84
67862;DHT22;54665;51.462;6.698;2024-02-26T02:22:45;7.03;80.27
67862;DHT22;54665;51.462;6.698;2024-02-26T02:24:47;7.13;80.31
67862;DHT22;54665;51.462;6.698;2024-02-26T02:26:47;7.01;80.74
67862;DHT22;54665;51.462;6.698;2024-02-26T02:28:48;7.06;79.81
67862;DHT22;54665;51.462;6.698;2024-02-26T02:30:48;7.02;79.87
67862;DHT22;54665;51.462;6.698;2024-02-26T02:32:49;7.01;79.57
67862;DHT22;54665;51.462;6.698;2024-02-26T02:34:49;7.10;79.58
67862;DHT22;54665;51.462;6.698;2024-02-26T02:36:53;7.01;79.29
67862;DHT22;54665;51.462;6.698;2024-02-26T02:38:53;7.06;79.50
67862;DHT22;54665;51.462;6.698;2024-02-26T02:40:54;7.01;79.72
67862;DHT22;54665;51.462;6.698;2024-02-26T02:42:54;6.95;79.80
67862;DHT22;54665;51.462;6.698;2024-02-26T02:44:55;6.96;80.76
67862;DHT22;54665;51.462;6.698;2024-02-26T02:46:55;6.92;80.74
67862;DHT22;54665;51.462;6.698;2024-02-26T02:48:56;6.79;81.17
67862;DHT22;54665;51.462;6.698;2024-02-26T02:50:56;6.88;80.75
67862;DHT22;54665;51.462;6.698;2024-02-26T02:52:56;6.91;80.39
67862;DHT22;54665;51.462;6.698;2024-02-26T02:54:57;6.84;80.57
67862;DHT22;54665;51.462;6.698;2024-02-26T02:56:58;6.88;81.30
67862;DHT22;54665;51.462;6.698;2024-02-26T02:58:58;6.89;81.15
67862;DHT22;54665;51.462;6.698;2024-02-26T03:00:58;6.81;81.50
67862;DHT22;54665;51.462;6.698;2024-02-26T03:02:59;6.98;81.51
67862;DHT22;54665;51.462;6.698;2024-02-26T03:04:59;6.87;82.09
67862;DHT22;54665;51.462;6.698;2024-02-26T03:07:00;6.75;82.35
67862;DHT22;54665;51.462;6.698;2024-02-26T03:09:00;6.65;83.23
67862;DHT22;54665;51.462;6.698;2024-02-26T03:11:00;6.88;81.73
67862;DHT22;54665;51.462;6.698;2024-02-26T03:13:00;6.84;81.79
67862;DHT22;54665;51.462;6.698;2024-02-26T03:15:01;6.82;81.15
67862;DHT22;54665;51.462;6.698;2024-02-26T03:17:01;6.89;80.26
67862;DHT22;54665;51.462;6.698;2024-02-26T03:19:02;6.91;80.62
67862;DHT22;54665;51.462;6.698;2024-02-26T03:21:02;6.82;81.10
67862;DHT22;54665;51.462;6.698;2024-02-26T03:23:03;6.71;81.99
67862;DHT22;54665;51.462;6.698;2024-02-26T03:25:03;6.68;82.14
67862;DHT22;54665;51.462;6.698;2024-02-26T03:27:04;6.60;83.92
67862;DHT22;54665;51.462;6.698;2024-02-26T03:29:05;6.48;83.53
67862;DHT22;54665;51.462;6.698;2024-02-26T03:31:05;6.51;83.70
67862;DHT22;54665;51.462;6.698;2024-02-26T03:33:06;6.37;84.07
67862;DHT22;54665;51.462;6.698;2024-02-26T03:35:06;6.20;84.43
67862;DHT22;54665;51.462;6.698;2024-02-26T03:37:06;6.29;84.78
67862;DHT22;54665;51.462;6.698;2024-02-26T03:39:07;6.14;86.10
67862;DHT22;54665;51.462;6.698;2024-02-26T03:41:07;5.93;86.36
67862;DHT22;54665;51.462;6.698;2024-02-26T03:43:07;6.17;87.40
67862;DHT22;54665;51.462;6.698;2024-02-26T03:45:08;6.13;87.27
67862;DHT22;54665;51.462;6.698;2024-02-26T03:47:09;6.17;87.62
67862;DHT22;54665;51.462;6.698;2024-02-26T03:49:09;6.23;86.86
67862;DHT22;54665;51.462;6.698;2024-02-26T03:51:10;6.19;86.97
67862;DHT22;54665;51.462;6.698;2024-02-26T03:53:10;5.99;86.92
67862;DHT22;54665;51.462;6.698;2024-02-26T03:55:10;6.16;86.87
67862;DHT22;54665;51.462;6.698;2024-02-26T03:57:11;6.06;88.06
67862;DHT22;54665;51.462;6.698;2024-02-26T03:59:11;6.16;87.39
67862;DHT22;54665;51.462;6.698;2024-02-26T04:01:11;6.00;87.72
67862;DHT22;54665;51.462;6.698;2024-02-26T04:03:11;5.86;88.07
67862;DHT22;54665;51.462;6.698;2024-02-26T04:05:13;5.96;88.01
67862;DHT22;54665;51.462;6.698;2024-02-26T04:07:13;5.89;88.15
67862;DHT22;54665;51.462;6.698;2024-02-26T04:09:14;6.02;87.79
67862;DHT22;54665;51.462;6.698;2024-02-26T04:11:14;5.88;88.20
67862;DHT22;54665;51.462;6.698;2024-02-26T04:13:15;5.97;87.47
67862;DHT22;54665;51.462;6.698;2024-02-26T04:15:15;5.96;87.80
67862;DHT22;54665;51.462;6.698;2024-02-26T04:17:15;5.96;87.55
67862;DHT22;54665;51.462;6.698;2024-02-26T04:19:16;5.96;87.80
67862;DHT22;54665;51.462;6.698;2024-02-26T04:21:16;5.97;87.77
67862;DHT22;54665;51.462;6.698;2024-02-26T04:23:16;6.00;88.26
67862;DHT22;54665;51.462;6.698;2024-02-26T04:25:17;5.90;87.97
67862;DHT22;54665;51.462;6.698;2024-02-26T04:27:17;6.00;87.77
67862;DHT22;54665;51.462;6.698;2024-02-26T04:29:17;5.95;88.01
67862;DHT22;54665;51.462;6.698;2024-02-26T04:31:18;5.86;87.82
67862;DHT22;54665;51.462;6.698;2024-02-26T04:33:18;5.85;87.75
67862;DHT22;54665;51.462;6.698;2024-02-26T04:35:18;5.78;87.92
67862;DHT22;54665;51.462;6.698;2024-02-26T04:37:18;5.88;88.44
67862;DHT22;54665;51.462;6.698;2024-02-26T04:39:19;6.03;88.01
67862;DHT22;54665;51.462;6.698;2024-02-26T04:41:19;6.06;88.54
67862;DHT22;54665;51.462;6.698;2024-02-26T04:43:20;5.88;88.00
67862;DHT22;54665;51.462;6.698;2024-02-26T04:45:20;5.99;88.15
67862;DHT22;54665;51.462;6.698;2024-02-26T04:47:20;6.03;88.38
67862;DHT22;54665;51.462;6.698;2024-02-26T04:49:21;5.88;88.81
67862;DHT22;54665;51.462;6.698;2024-02-26T04:51:21;6.06;88.35
67862;DHT22;54665;51.462;6.698;2024-02-26T04:53:21;5.95;88.57
67862;DHT22;54665;51.462;6.698;2024-02-26T04:55:21;5.92;88.62
67862;DHT22;54665;51.462;6.698;2024-02-26T04:57:22;6.07;88.62
67862;DHT22;54665;51.462;6.698;2024-02-26T04:59:22;6.05;88.58
67862;DHT22;54665;51.462;6.698;2024-02-26T05:01:22;5.78;88.69
67862;DHT22;54665;51.462;6.698;2024-02-26T05:03:23;5.92;89.34
67862;DHT22;54665;51.462;6.698;2024-02-26T05:05:23;5.90;89.66
67862;DHT22;54665;51.462;6.698;2024-02-26T05:07:23;5.99;89.76
67862;DHT22;54665;51.462;6.698;2024-02-26T05:09:23;5.95;89.52
67862;DHT22;54665;51.462;6.698;2024-02-26T05:11:24;5.75;90.37
67862;DHT22;54665;51.462;6.698;2024-02-26T05:13:24;5.90;89.94
67862;DHT22;54665;51.462;6.698;2024-02-26T05:15:24;5.92;90.54
67862;DHT22;54665;51.462;6.698;2024-02-26T05:17:24;5.66;90.26
67862;DHT22;54665;51.462;6.698;2024-02-26T05:19:25;5.72;90.62
67862;DHT22;54665;51.462;6.698;2024-02-26T05:21:25;5.68;90.53
67862;DHT22;54665;51.462;6.698;2024-02-26T05:23:26;5.73;91.00
67862;DHT22;54665;51.462;6.698;2024-02-26T05:25:26;5.79;90.92
67862;DHT22;54665;51.462;6.698;2024-02-26T05:27:26;5.62;90.90
67862;DHT22;54665;51.462;6.698;2024-02-26T05:29:27;5.62;91.45
67862;DHT22;54665;51.462;6.698;2024-02-26T05:31:27;5.69;90.96
67862;DHT22;54665;51.462;6.698;2024-02-26T05:33:28;5.75;90.95
67862;DHT22;54665;51.462;6.698;2024-02-26T05:35:28;5.62;91.20
67862;DHT22;54665;51.462;6.698;2024-02-26T05:37:28;5.62;90.71
67862;DHT22;54665;51.462;6.698;2024-02-26T05:39:29;5.79;90.55
67862;DHT22;54665;51.462;6.698;2024-02-26T05:41:29;5.72;90.76
67862;DHT22;54665;51.462;6.698;2024-02-26T05:43:29;5.76;90.66
67862;DHT22;54665;51.462;6.698;2024-02-26T05:45:30;5.72;91.05
67862;DHT22;54665;51.462;6.698;2024-02-26T05:47:30;5.73;91.09
67862;DHT22;54665;51.462;6.698;2024-02-26T05:49:30;5.70;90.70
67862;DHT22;54665;51.462;6.698;2024-02-26T05:51:31;5.65;91.07
67862;DHT22;54665;51.462;6.698;2024-02-26T05:53:31;5.59;90.90
67862;DHT22;54665;51.462;6.698;2024-02-26T05:55:31;5.52;91.41
67862;DHT22;54665;51.462;6.698;2024-02-26T05:57:32;5.59;90.70
67862;DHT22;54665;51.462;6.698;2024-02-26T05:59:33;5.65;90.91
67862;DHT22;54665;51.462;6.698;2024-02-26T06:01:33;5.62;90.75
67862;DHT22;54665;51.462;6.698;2024-02-26T06:03:33;5.58;90.97
67862;DHT22;54665;51.462;6.698;2024-02-26T06:05:34;5.39;90.85
67862;DHT22;54665;51.462;6.698;2024-02-26T06:07:34;5.62;91.05
67862;DHT22;54665;51.462;6.698;2024-02-26T06:09:34;5.65;90.46
67862;DHT22;54665;51.462;6.698;2024-02-26T06:11:35;5.58;91.10
67862;DHT22;54665;51.462;6.698;2024-02-26T06:13:35;5.63;90.57
67862;DHT22;54665;51.462;6.698;2024-02-26T06:15:35;5.59;90.68
67862;DHT22;54665;51.462;6.698;2024-02-26T06:17:36;5.52;90.95
67862;DHT22;54665;51.462;6.698;2024-02-26T06:19:36;5.52;90.63
67862;DHT22;54665;51.462;6.698;2024-02-26T06:21:36;5.56;90.97
67862;DHT22;54665;51.462;6.698;2024-02-26T06:23:38;5.65;90.90
67862;DHT22;54665;51.462;6.698;2024-02-26T06:25:39;5.68;90.74
67862;DHT22;54665;51.462;6.698;2024-02-26T06:27:39;5.66;90.73
67862;DHT22;54665;51.462;6.698;2024-02-26T06:29:40;5.68;90.48
67862;DHT22;54665;51.462;6.698;2024-02-26T06:31:40;5.66;90.87
67862;DHT22;54665;51.462;6.698;2024-02-26T06:33:40;5.59;90.79
67862;DHT22;54665;51.462;6.698;2024-02-26T06:35:40;5.72;90.80
67862;DHT22;54665;51.462;6.698;2024-02-26T06:37:41;5.62;90.69
67862;DHT22;54665;51.462;6.698;2024-02-26T06:39:41;5.73;90.73
67862;DHT22;54665;51.462;6.698;2024-02-26T06:41:41;5.78;90.70
67862;DHT22;54665;51.462;6.698;2024-02-26T06:43:42;5.69;90.42
67862;DHT22;54665;51.462;6.698;2024-02-26T06:45:42;5.69;90.64
67862;DHT22;54665;51.462;6.698;2024-02-26T06:47:42;5.65;90.90
67862;DHT22;54665;51.462;6.698;2024-02-26T06:49:43;5.78;90.39
67862;DHT22;54665;51.462;6.698;2024-02-26T06:51:43;5.75;90.93
67862;DHT22;54665;51.462;6.698;2024-02-26T06:53:43;5.68;90.86
67862;DHT22;54665;51.462;6.698;2024-02-26T06:55:43;5.69;90.77
67862;DHT22;54665;51.462;6.698;2024-02-26T06:57:44;5.78;90.69
67862;DHT22;54665;51.462;6.698;2024-02-26T06:59:44;5.66;90.40
67862;DHT22;54665;51.462;6.698;2024-02-26T07:01:44;5.78;90.71
67862;DHT22;54665;51.462;6.698;2024-02-26T07:03:45;5.59;90.93
67862;DHT22;54665;51.462;6.698;2024-02-26T07:05:45;5.65;90.78
67862;DHT22;54665;51.462;6.698;2024-02-26T07:07:45;5.78;90.86
67862;DHT22;54665;51.462;6.698;2024-02-26T07:09:45;5.63;91.26
67862;DHT22;54665;51.462;6.698;2024-02-26T07:11:46;5.89;90.83
67862;DHT22;54665;51.462;6.698;2024-02-26T07:13:46;5.79;90.68
67862;DHT22;54665;51.462;6.698;2024-02-26T07:15:47;5.80;90.42
67862;DHT22;54665;51.462;6.698;2024-02-26T07:17:47;5.96;90.18
67862;DHT22;54665;51.462;6.698;2024-02-26T07:19:47;5.97;90.39
67862;DHT22;54665;51.462;6.698;2024-02-26T07:21:47;6.00;90.21
67862;DHT22;54665;51.462;6.698;2024-02-26T07:23:48;5.89;90.34
67862;DHT22;54665;51.462;6.698;2024-02-26T07:25:48;5.89;90.33
67862;DHT22;54665;51.462;6.698;2024-02-26T07:27:48;5.95;90.58
67862;DHT22;54665;51.462;6.698;2024-02-26T07:29:49;6.07;90.14
67862;DHT22;54665;51.462;6.698;2024-02-26T07:31:49;5.99;90.59
67862;DHT22;54665;51.462;6.698;2024-02-26T07:33:49;5.93;90.38
67862;DHT22;54665;51.462;6.698;2024-02-26T07:35:50;5.96;90.37
67862;DHT22;54665;51.462;6.698;2024-02-26T07:37:50;5.99;90.44
67862;DHT22;54665;51.462;6.698;2024-02-26T07:39:50;6.06;90.36
67862;DHT22;54665;51.462;6.698;2024-02-26T07:41:51;5.97;90.36
67862;DHT22;54665;51.462;6.698;2024-02-26T07:43:51;5.79;90.46
67862;DHT22;54665;51.462;6.698;2024-02-26T07:45:51;5.99;89.93
67862;DHT22;54665;51.462;6.698;2024-02-26T07:47:52;6.00;90.49
67862;DHT22;54665;51.462;6.698;2024-02-26T07:49:52;6.03;90.49
67862;DHT22;54665;51.462;6.698;2024-02-26T07:51:52;6.03;90.42
67862;DHT22;54665;51.462;6.698;2024-02-26T07:53:52;5.93;90.40
67862;DHT22;54665;51.462;6.698;2024-02-26T07:55:53;6.05;90.64
67862;DHT22;54665;51.462;6.698;2024-02-26T07:57:53;5.92;90.79
67862;DHT22;54665;51.462;6.698;2024-02-26T07:59:53;6.07;90.33
67862;DHT22;54665;51.462;6.698;2024-02-26T08:01:53;6.05;90.89
67862;DHT22;54665;51.462;6.698;2024-02-26T08:03:54;6.07;90.52
67862;DHT22;54665;51.462;6.698;2024-02-26T08:05:54;5.88;91.07
67862;DHT22;54665;51.462;6.698;2024-02-26T08:07:54;6.02;90.79
67862;DHT22;54665;51.462;6.698;2024-02-26T08:09:55;5.76;90.79
67862;DHT22;54665;51.462;6.698;2024-02-26T08:11:55;6.05;90.76
67862;DHT22;54665;51.462;6.698;2024-02-26T08:13:55;6.13;90.34
67862;DHT22;54665;51.462;6.698;2024-02-26T08:15:55;6.00;90.75
67862;DHT22;54665;51.462;6.698;2024-02-26T08:17:56;6.06;90.36
67862;DHT22;54665;51.462;6.698;2024-02-26T08:19:56;6.10;90.43
67862;DHT22;54665;51.462;6.698;2024-02-26T08:21:56;6.14;90.56
67862;DHT22;54665;51.462;6.698;2024-02-26T08:23:57;6.19;90.80
67862;DHT22;54665;51.462;6.698;2024-02-26T08:25:57;6.16;90.02
67862;DHT22;54665;51.462;6.698;2024-02-26T08:27:57;6.24;90.15
67862;DHT22;54665;51.462;6.698;2024-02-26T08:29:58;6.30;90.52
67862;DHT22;54665;51.462;6.698;2024-02-26T08:31:58;6.27;90.33
67862;DHT22;54665;51.462;6.698;2024-02-26T08:33:58;5.96;90.42
67862;DHT22;54665;51.462;6.698;2024-02-26T08:35:58;5.93;90.58
67862;DHT22;54665;51.462;6.698;2024-02-26T08:37:59;6.09;90.97
67862;DHT22;54665;51.462;6.698;2024-02-26T08:39:59;6.06;90.84
67862;DHT22;54665;51.462;6.698;2024-02-26T08:41:59;6.13;90.69
67862;DHT22;54665;51.462;6.698;2024-02-26T08:44:00;6.02;91.03
67862;DHT22;54665;51.462;6.698;2024-02-26T08:46:00;6.24;90.58
67862;DHT22;54665;51.462;6.698;2024-02-26T08:48:00;6.20;90.28
67862;DHT22;54665;51.462;6.698;2024-02-26T08:50:00;6.13;90.69
67862;DHT22;54665;51.462;6.698;2024-02-26T08:52:01;6.16;91.05
67862;DHT22;54665;51.462;6.698;2024-02-26T08:54:01;6.06;90.67
67862;DHT22;54665;51.462;6.698;2024-02-26T08:56:02;6.17;91.15
67862;DHT22;54665;51.462;6.698;2024-02-26T08:58:02;6.06;91.31
67862;DHT22;54665;51.462;6.698;2024-02-26T09:00:03;6.27;90.65
67862;DHT22;54665;51.462;6.698;2024-02-26T09:02:03;6.30;91.09
67862;DHT22;54665;51.462;6.698;2024-02-26T09:04:03;6.33;90.63
67862;DHT22;54665;51.462;6.698;2024-02-26T09:06:04;6.29;90.63
67862;DHT22;54665;51.462;6.698;2024-02-26T09:08:05;6.30;90.54
67862;DHT22;54665;51.462;6.698;2024-02-26T09:10:06;6.30;90.08
67862;DHT22;54665;51.462;6.698;2024-02-26T09:12:06;6.40;90.14
67862;DHT22;54665;51.462;6.698;2024-02-26T09:14:06;6.36;89.73
67862;DHT22;54665;51.462;6.698;2024-02-26T09:16:07;6.33;90.04
67862;DHT22;54665;51.462;6.698;2024-02-26T09:18:07;6.33;90.50
67862;DHT22;54665;51.462;6.698;2024-02-26T09:20:08;6.20;90.12
67862;DHT22;54665;51.462;6.698;2024-02-26T09:22:08;6.31;90.11
67862;DHT22;54665;51.462;6.698;2024-02-26T09:24:08;6.29;90.47
67862;DHT22;54665;51.462;6.698;2024-02-26T09:26:09;6.13;90.69
67862;DHT22;54665;51.462;6.698;2024-02-26T09:28:09;6.21;90.72
67862;DHT22;54665;51.462;6.698;2024-02-26T09:30:11;6.31;90.57
67862;DHT22;54665;51.462;6.698;2024-02-26T09:32:11;6.37;90.45
67862;DHT22;54665;51.462;6.698;2024-02-26T09:34:12;6.38;90.31
67862;DHT22;54665;51.462;6.698;2024-02-26T09:36:12;6.38;90.51
67862;DHT22;54665;51.462;6.698;2024-02-26T09:38:12;6.38;90.43
67862;DHT22;54665;51.462;6.698;2024-02-26T09:40:13;6.20;90.31
67862;DHT22;54665;51.462;6.698;2024-02-26T09:42:13;6.29;90.15
67862;DHT22;54665;51.462;6.698;2024-02-26T09:44:18;6.19;90.24
67862;DHT22;54665;51.462;6.698;2024-02-26T09:46:19;6.14;90.66
67862;DHT22;54665;51.462;6.698;2024-02-26T09:48:19;6.29;90.43
67862;DHT22;54665;51.462;6.698;2024-02-26T09:50:20;6.33;90.22
67862;DHT22;54665;51.462;6.698;2024-02-26T09:52:21;6.42;90.20
67862;DHT22;54665;51.462;6.698;2024-02-26T09:54:24;6.17;90.36
67862;DHT22;54665;51.462;6.698;2024-02-26T09:56:24;6.31;90.58
67862;DHT22;54665;51.462;6.698;2024-02-26T09:58:27;6.30;90.55
67862;DHT22;54665;51.462;6.698;2024-02-26T10:00:30;6.31;90.63
67862;DHT22;54665;51.462;6.698;2024-02-26T10:02:33;6.31;90.88
67862;DHT22;54665;51.462;6.698;2024-02-26T10:04:34;6.31;90.22
67862;DHT22;54665;51.462;6.698;2024-02-26T10:06:35;6.29;90.97
67862;DHT22;54665;51.462;6.698;2024-02-26T10:08:36;6.21;90.48
67862;DHT22;54665;51.462;6.698;2024-02-26T10:10:37;6.30;90.36
67862;DHT22;54665;51.462;6.698;2024-02-26T10:12:38;6.42;90.31
67862;DHT22;54665;51.462;6.698;2024-02-26T10:14:38;6.41;90.72
67862;DHT22;54665;51.462;6.698;2024-02-26T10:16:39;6.50;90.42
67862;DHT22;54665;51.462;6.698;2024-02-26T10:18:49;6.51;90.41
67862;DHT22;54665;51.462;6.698;2024-02-26T10:21:07;6.47;90.22
67862;DHT22;54665;51.462;6.698;2024-02-26T10:23:08;6.47;90.38
67862;DHT22;54665;51.462;6.698;2024-02-26T10:25:08;6.19;90.79
67862;DHT22;54665;51.462;6.698;2024-02-26T10:27:08;6.41;90.81
67862;DHT22;54665;51.462;6.698;2024-02-26T10:29:09;6.50;90.48
67862;DHT22;54665;51.462;6.698;2024-02-26T10:31:09;6.54;90.48
67862;DHT22;54665;51.462;6.698;2024-02-26T10:33:10;6.52;90.25
67862;DHT22;54665;51.462;6.698;2024-02-26T10:35:10;6.57;90.64
67862;DHT22;54665;51.462;6.698;2024-02-26T10:37:11;6.81;90.09
67862;DHT22;54665;51.462;6.698;2024-02-26T10:39:14;6.75;90.16
67862;DHT22;54665;51.462;6.698;2024-02-26T10:41:14;6.61;90.44
67862;DHT22;54665;51.462;6.698;2024-02-26T10:43:15;6.68;90.71
67862;DHT22;54665;51.462;6.698;2024-02-26T10:45:15;6.67;90.89
67862;DHT22;54665;51.462;6.698;2024-02-26T10:47:16;6.54;90.82
67862;DHT22;54665;51.462;6.698;2024-02-26T10:49:17;6.61;90.97
67862;DHT22;54665;51.462;6.698;2024-02-26T10:51:26;6.85;90.72
67862;DHT22;54665;51.462;6.698;2024-02-26T10:53:29;6.96;90.19
67862;DHT22;54665;51.462;6.698;2024-02-26T10:55:30;7.02;90.54
67862;DHT22;54665;51.462;6.698;2024-02-26T10:57:39;7.15;90.41
67862;DHT22;54665;51.462;6.698;2024-02-26T10:59:42;7.05;89.79
67862;DHT22;54665;51.462;6.698;2024-02-26T11:01:43;7.19;89.63
67862;DHT22;54665;51.462;6.698;2024-02-26T11:03:43;7.19;89.89
67862;DHT22;54665;51.462;6.698;2024-02-26T11:05:44;7.05;89.49
67862;DHT22;54665;51.462;6.698;2024-02-26T11:07:46;7.15;89.94
67862;DHT22;54665;51.462;6.698;2024-02-26T11:09:47;7.36;90.12
67862;DHT22;54665;51.462;6.698;2024-02-26T11:11:48;7.37;89.13
67862;DHT22;54665;51.462;6.698;2024-02-26T11:13:50;7.37;89.05
67862;DHT22;54665;51.462;6.698;2024-02-26T11:15:51;7.08;89.51
67862;DHT22;54665;51.462;6.698;2024-02-26T11:17:52;7.56;88.94
67862;DHT22;54665;51.462;6.698;2024-02-26T11:19:55;7.60;88.31
67862;DHT22;54665;51.462;6.698;2024-02-26T11:21:56;7.63;88.58
67862;DHT22;54665;51.462;6.698;2024-02-26T11:23:56;7.80;88.39
67862;DHT22;54665;51.462;6.698;2024-02-26T11:25:58;7.71;89.63
67862;DHT22;54665;51.462;6.698;2024-02-26T11:28:03;7.85;89.25
67862;DHT22;54665;51.462;6.698;2024-02-26T11:30:08;7.51;89.52
67862;DHT22;54665;51.462;6.698;2024-02-26T11:32:09;7.44;89.07
67862;DHT22;54665;51.462;6.698;2024-02-26T11:34:10;7.06;90.06
67862;DHT22;54665;51.462;6.698;2024-02-26T11:36:11;7.40;90.54
67862;DHT22;54665;51.462;6.698;2024-02-26T11:38:24;7.59;88.88
67862;DHT22;54665;51.462;6.698;2024-02-26T11:40:26;7.70;89.51
67862;DHT22;54665;51.462;6.698;2024-02-26T11:42:26;7.83;89.43
67862;DHT22;54665;51.462;6.698;2024-02-26T11:44:29;7.43;88.61
67862;DHT22;54665;51.462;6.698;2024-02-26T11:46:31;7.56;88.72
67862;DHT22;54665;51.462;6.698;2024-02-26T11:48:32;7.47;88.74
67862;DHT22;54665;51.462;6.698;2024-02-26T11:50:35;7.56;88.90
67862;DHT22;54665;51.462;6.698;2024-02-26T11:52:35;7.57;88.09
67862;DHT22;54665;51.462;6.698;2024-02-26T11:54:56;7.50;88.71
67862;DHT22;54665;51.462;6.698;2024-02-26T11:56:57;7.16;88.53
67862;DHT22;54665;51.462;6.698;2024-02-26T11:58:59;7.34;88.22
67862;DHT22;54665;51.462;6.698;2024-02-26T12:01:03;7.49;88.59
67862;DHT22;54665;51.462;6.698;2024-02-26T12:03:04;7.40;87.49
67862;DHT22;54665;51.462;6.698;2024-02-26T12:05:22;7.69;87.35
67862;DHT22;54665;51.462;6.698;2024-02-26T12:07:23;7.80;87.79
67862;DHT22;54665;51.462;6.698;2024-02-26T12:09:37;7.59;86.73
67862;DHT22;54665;51.462;6.698;2024-02-26T12:11:39;7.51;86.75
67862;DHT22;54665;51.462;6.698;2024-02-26T12:13:39;7.98;87.49
67862;DHT22;54665;51.462;6.698;2024-02-26T12:15:44;7.83;86.20
67862;DHT22;54665;51.462;6.698;2024-02-26T12:17:48;7.88;88.38
67862;DHT22;54665;51.462;6.698;2024-02-26T12:19:48;7.34;87.66
67862;DHT22;54665;51.462;6.698;2024-02-26T12:21:52;7.73;87.61
67862;DHT22;54665;51.462;6.698;2024-02-26T12:23:53;7.59;86.41
67862;DHT22;54665;51.462;6.698;2024-02-26T12:25:53;7.18;87.67
67862;DHT22;54665;51.462;6.698;2024-02-26T12:27:54;7.36;87.01
67862;DHT22;54665;51.462;6.698;2024-02-26T12:29:54;7.69;87.25
67862;DHT22;54665;51.462;6.698;2024-02-26T12:31:54;7.37;86.45
67862;DHT22;54665;51.462;6.698;2024-02-26T12:33:55;7.64;86.36
67862;DHT22;54665;51.462;6.698;2024-02-26T12:35:55;7.67;86.05
67862;DHT22;54665;51.462;6.698;2024-02-26T12:37:56;7.85;87.21
67862;DHT22;54665;51.462;6.698;2024-02-26T12:39:57;7.61;86.72
67862;DHT22;54665;51.462;6.698;2024-02-26T12:41:57;7.77;85.85
67862;DHT22;54665;51.462;6.698;2024-02-26T12:43:59;7.95;86.34
67862;DHT22;54665;51.462;6.698;2024-02-26T12:46:03;7.77;86.90
67862;DHT22;54665;51.462;6.698;2024-02-26T12:48:04;7.95;86.36
67862;DHT22;54665;51.462;6.698;2024-02-26T12:50:05;7.80;87.06
67862;DHT22;54665;51.462;6.698;2024-02-26T12:52:06;7.98;86.89
67862;DHT22;54665;51.462;6.698;2024-02-26T12:54:07;7.59;86.69